Dunbarton, South Carolina
Current Conditions -  °F | °C
As of 7:15 AM on Wednesday 28 Jan 2015 (Local Time) from KBNL Reporting Station
NA  
Wind Chill: 28°   Ceiling: NA
Heat Index: 28°   Visibility: NA
Dew Point: 27°   Wind: 0mph
Humidity: 93%   Direction: NA
Pressure: 30.2"   Gusts: NA
Location:  33.2653°N, 81.6553°W
Report Text: KBNL 281215Z AUTO 00000KT M02/M03 A3020 RMK AO2
Loading
Personal Weather Stations






























Interactive Weather Map New forecast layout! Learn more

10-Day Weather Forecast

Advertisements
Track Severe Weather on mobile